Time;durP1;ratioP1;P1;durP2;ratioP2;P2;SDS_P1;SDS_P2;PMS_P1;PMS_P2;Temp;Humidity;BMP_temperature;BMP_pressure;BME280_temperature;BME280_humidity;BME280_pressure;Samples;Min_cycle;Max_cycle;Signal;HPM_P1;HPM_P2
2022/09/22 00:00:08;;;;;;;10.38;6.07;;;9.50;99.90;;;;;;5074921;28;20099;-68
2022/09/22 00:02:33;;;;;;;10.00;6.47;;;9.50;99.90;;;;;;5075317;28;20016;-68
2022/09/22 00:04:59;;;;;;;9.88;6.18;;;9.50;99.90;;;;;;5075467;28;20597;-66
2022/09/22 00:07:25;;;;;;;12.15;6.90;;;9.50;99.90;;;;;;5073665;28;20039;-66
2022/09/22 00:09:51;;;;;;;11.57;6.70;;;9.50;99.90;;;;;;5078306;28;20118;-67
2022/09/22 00:12:16;;;;;;;11.80;6.07;;;9.50;99.90;;;;;;5073867;28;20099;-66
2022/09/22 00:14:42;;;;;;;9.70;5.93;;;9.50;99.90;;;;;;5074604;28;20066;-67
2022/09/22 00:17:08;;;;;;;9.63;5.78;;;9.60;99.90;;;;;;5073769;28;20020;-69
2022/09/22 00:19:36;;;;;;;11.93;6.63;;;9.60;99.90;;;;;;5073651;28;20381;-68
2022/09/22 00:22:03;;;;;;;11.65;6.60;;;9.60;99.90;;;;;;5073576;28;20028;-68
2022/09/22 00:24:30;;;;;;;9.20;5.75;;;9.60;99.90;;;;;;5073346;28;20647;-68
2022/09/22 00:26:57;;;;;;;11.55;6.57;;;9.60;99.90;;;;;;5075792;28;20028;-67
2022/09/22 00:29:28;;;;;;;9.52;6.10;;;9.60;99.90;;;;;;5073005;28;20471;-67
2022/09/22 00:31:54;;;;;;;11.40;6.03;;;9.60;99.90;;;;;;5069302;28;20413;-68
2022/09/22 00:34:23;;;;;;;10.35;5.65;;;9.60;99.90;;;;;;5072761;28;20042;-67
2022/09/22 00:36:48;;;;;;;9.98;6.00;;;9.60;99.90;;;;;;5072650;28;20103;-67
2022/09/22 00:39:16;;;;;;;13.60;6.15;;;9.70;99.90;;;;;;5072799;28;20506;-67
2022/09/22 00:41:45;;;;;;;9.90;5.82;;;9.70;99.90;;;;;;5068960;28;20031;-68
2022/09/22 00:44:29;;;;;;;11.65;6.30;;;9.70;99.90;;;;;;5072565;28;20052;-68
2022/09/22 00:47:00;;;;;;;15.73;6.38;;;9.70;99.90;;;;;;5069279;28;20060;-68
2022/09/22 00:49:40;;;;;;;13.02;6.85;;;9.70;99.90;;;;;;5071627;28;20490;-68
2022/09/22 00:52:07;;;;;;;10.63;5.78;;;9.70;99.90;;;;;;5072752;28;20023;-67
2022/09/22 00:54:33;;;;;;;10.18;5.20;;;9.70;99.90;;;;;;5072314;28;20044;-66
2022/09/22 00:57:10;;;;;;;10.82;5.75;;;9.70;99.90;;;;;;5071721;28;20033;-67
2022/09/22 00:59:37;;;;;;;11.95;6.45;;;9.70;99.90;;;;;;5071603;28;20044;-67
2022/09/22 01:02:03;;;;;;;12.52;6.53;;;9.70;99.90;;;;;;5070616;28;20735;-67
2022/09/22 01:04:29;;;;;;;12.82;6.88;;;9.70;99.90;;;;;;5066281;28;20021;-68
2022/09/22 01:06:57;;;;;;;10.88;6.00;;;9.70;99.90;;;;;;5068161;28;20060;-68
2022/09/22 01:09:23;;;;;;;10.77;5.57;;;9.80;99.90;;;;;;5068815;28;20489;-68
2022/09/22 01:11:49;;;;;;;9.20;5.03;;;9.70;99.90;;;;;;5072385;28;20039;-65
2022/09/22 01:14:36;;;;;;;11.05;5.45;;;9.70;99.90;;;;;;5071506;28;20024;-68
2022/09/22 01:17:24;;;;;;;10.27;5.10;;;9.70;99.90;;;;;;5071895;28;20569;-66
2022/09/22 01:19:56;;;;;;;8.85;5.38;;;9.60;99.90;;;;;;5070862;28;20082;-66
2022/09/22 01:22:59;;;;;;;9.07;5.43;;;9.60;99.90;;;;;;5070183;28;20020;-69
2022/09/22 01:25:57;;;;;;;11.30;5.53;;;9.60;99.90;;;;;;5070377;28;20024;-67
2022/09/22 01:28:34;;;;;;;9.82;5.68;;;9.60;99.90;;;;;;5069046;28;20034;-67
2022/09/22 01:31:13;;;;;;;9.73;5.40;;;9.60;99.90;;;;;;5071572;28;20036;-67
2022/09/22 01:33:39;;;;;;;10.32;5.53;;;9.60;99.90;;;;;;5070327;28;20107;-67
2022/09/22 01:36:26;;;;;;;11.57;5.90;;;9.60;99.90;;;;;;5071360;28;20083;-67
2022/09/22 01:38:58;;;;;;;11.10;5.45;;;9.60;99.90;;;;;;5070137;28;20024;-67
2022/09/22 01:41:50;;;;;;;12.48;5.85;;;9.60;99.90;;;;;;5071604;28;20101;-67
2022/09/22 01:44:24;;;;;;;10.43;5.43;;;9.60;99.90;;;;;;5027761;28;20036;-68
2022/09/22 01:46:59;;;;;;;12.77;6.30;;;9.50;99.90;;;;;;5068009;28;20028;-67
2022/09/22 01:49:28;;;;;;;12.48;6.07;;;9.50;99.90;;;;;;5073653;28;20094;-68
2022/09/22 01:51:58;;;;;;;12.20;6.00;;;9.50;99.90;;;;;;5071178;28;20028;-68
2022/09/22 01:54:30;;;;;;;10.90;5.63;;;9.50;99.90;;;;;;5071183;28;20043;-68
2022/09/22 01:57:19;;;;;;;11.27;6.43;;;9.40;99.90;;;;;;5070979;28;20036;-68
2022/09/22 01:59:54;;;;;;;12.07;6.78;;;9.40;99.90;;;;;;5067238;28;20047;-67
2022/09/22 02:02:28;;;;;;;11.63;6.47;;;9.40;99.90;;;;;;5066975;28;20052;-66
2022/09/22 02:04:59;;;;;;;13.45;6.30;;;9.40;99.90;;;;;;5066994;28;20029;-68
2022/09/22 02:07:39;;;;;;;13.18;5.78;;;9.30;99.90;;;;;;5070885;28;20044;-66
2022/09/22 02:10:11;;;;;;;10.43;5.72;;;9.40;99.90;;;;;;5067517;28;20025;-68
2022/09/22 02:12:38;;;;;;;11.70;6.28;;;9.30;99.90;;;;;;5067169;28;20070;-66
2022/09/22 02:15:58;;;;;;;9.25;5.95;;;9.30;99.90;;;;;;5070582;28;20056;-67
2022/09/22 02:17:59;;;;;;;12.02;6.20;;;9.30;99.90;;;;;;5071030;28;20113;-68
2022/09/22 02:20:25;;;;;;;13.05;6.45;;;9.30;99.90;;;;;;5067257;28;20074;-67
2022/09/22 02:22:52;;;;;;;12.70;6.95;;;9.20;99.90;;;;;;5070624;28;20050;-68
2022/09/22 02:25:17;;;;;;;12.10;6.38;;;9.20;99.90;;;;;;5070878;28;20111;-67
2022/09/22 02:27:46;;;;;;;12.48;6.25;;;9.20;99.90;;;;;;5070561;28;20096;-68
2022/09/22 02:30:13;;;;;;;9.95;6.13;;;9.20;99.90;;;;;;5066662;28;20474;-67
2022/09/22 02:32:44;;;;;;;10.02;5.90;;;9.20;99.90;;;;;;5070075;28;20024;-68
2022/09/22 02:35:10;;;;;;;13.05;6.45;;;9.20;99.90;;;;;;5070492;28;20421;-68
2022/09/22 02:38:08;;;;;;;13.05;6.60;;;9.20;99.90;;;;;;5070758;28;20091;-67
2022/09/22 02:41:17;;;;;;;10.32;6.22;;;9.20;99.90;;;;;;5061032;28;20040;-66
2022/09/22 02:44:05;;;;;;;13.70;6.35;;;9.10;99.90;;;;;;5008481;28;20087;-67
2022/09/22 02:46:38;;;;;;;12.07;6.10;;;9.10;99.90;;;;;;5006955;28;20628;-68
2022/09/22 02:49:15;;;;;;;13.43;6.75;;;9.10;99.90;;;;;;5005600;28;20072;-68
2022/09/22 02:51:41;;;;;;;13.02;6.88;;;9.10;99.90;;;;;;5008278;28;20033;-68
2022/09/22 02:54:08;;;;;;;12.70;6.45;;;9.00;99.90;;;;;;5008144;28;20068;-67
2022/09/22 02:56:34;;;;;;;10.77;5.65;;;9.00;99.90;;;;;;5008522;28;20018;-68
2022/09/22 02:58:59;;;;;;;13.65;6.10;;;9.00;99.90;;;;;;5008120;28;20037;-67
2022/09/22 03:01:25;;;;;;;10.82;6.50;;;9.00;99.90;;;;;;5007778;28;20064;-68
2022/09/22 03:03:52;;;;;;;13.38;7.05;;;9.00;99.90;;;;;;5008184;28;20119;-68
2022/09/22 03:06:18;;;;;;;14.77;7.85;;;8.90;99.90;;;;;;5007706;28;20094;-67
2022/09/22 03:08:43;;;;;;;15.55;8.10;;;8.90;99.90;;;;;;5008095;28;20049;-67
2022/09/22 03:11:09;;;;;;;13.05;7.80;;;8.90;99.90;;;;;;5008317;28;20029;-66
2022/09/22 03:13:35;;;;;;;14.13;7.40;;;8.90;99.90;;;;;;5014071;28;20515;-67
2022/09/22 03:16:01;;;;;;;11.32;6.97;;;8.90;99.90;;;;;;5014424;28;20393;-67
2022/09/22 03:18:26;;;;;;;13.23;6.68;;;8.90;99.90;;;;;;5014425;28;20165;-68
2022/09/22 03:20:52;;;;;;;13.57;6.93;;;8.80;99.90;;;;;;5048884;28;20045;-67
2022/09/22 03:23:18;;;;;;;12.48;6.53;;;8.90;99.90;;;;;;5056301;28;20058;-68
2022/09/22 03:25:44;;;;;;;12.38;7.15;;;8.80;99.90;;;;;;5056528;28;20036;-68
2022/09/22 03:28:09;;;;;;;11.93;6.80;;;8.80;99.90;;;;;;5056322;28;20108;-68
2022/09/22 03:30:36;;;;;;;11.75;6.28;;;8.80;99.90;;;;;;5056142;28;20040;-67
2022/09/22 03:33:02;;;;;;;11.55;6.35;;;8.70;99.90;;;;;;5056376;28;20033;-66
2022/09/22 03:35:28;;;;;;;17.63;7.65;;;8.80;99.90;;;;;;5056519;28;20475;-67
2022/09/22 03:37:53;;;;;;;13.43;7.60;;;8.70;99.90;;;;;;5056440;28;20029;-66
2022/09/22 03:40:21;;;;;;;13.85;8.25;;;8.70;99.90;;;;;;5056500;28;20024;-67
2022/09/22 03:42:47;;;;;;;17.00;7.50;;;8.70;99.90;;;;;;5056359;28;20424;-67
2022/09/22 03:45:13;;;;;;;12.77;8.02;;;8.70;99.90;;;;;;5056441;28;20029;-66
2022/09/22 03:47:39;;;;;;;11.75;6.80;;;8.70;99.90;;;;;;5056257;28;20025;-68
2022/09/22 03:50:06;;;;;;;12.77;7.50;;;8.70;99.90;;;;;;5055999;28;20041;-67
2022/09/22 03:52:32;;;;;;;13.20;7.20;;;8.60;99.90;;;;;;5056267;28;20071;-68
2022/09/22 03:54:58;;;;;;;12.60;7.60;;;8.60;99.90;;;;;;5055916;28;20031;-67
2022/09/22 03:57:24;;;;;;;13.32;7.93;;;8.60;99.90;;;;;;5056001;28;20079;-69
2022/09/22 03:59:51;;;;;;;14.40;7.88;;;8.60;99.90;;;;;;5055849;28;20526;-65
2022/09/22 04:02:17;;;;;;;15.52;8.95;;;8.60;99.90;;;;;;5054999;28;20061;-64
2022/09/22 04:04:43;;;;;;;13.07;7.97;;;8.60;99.90;;;;;;5055684;28;20548;-66
2022/09/22 04:07:08;;;;;;;13.65;7.90;;;8.60;99.90;;;;;;5072178;28;20096;-66
2022/09/22 04:09:34;;;;;;;17.35;9.07;;;8.60;99.90;;;;;;5075087;28;20032;-65
2022/09/22 04:12:00;;;;;;;11.60;7.18;;;8.60;99.90;;;;;;5075027;28;20012;-66
2022/09/22 04:14:26;;;;;;;15.45;8.13;;;8.60;99.90;;;;;;5075665;28;20021;-67
2022/09/22 04:16:53;;;;;;;12.80;7.50;;;8.50;99.90;;;;;;5075571;28;20016;-66
2022/09/22 04:19:19;;;;;;;10.45;7.10;;;8.60;99.90;;;;;;5075351;28;20020;-66
2022/09/22 04:21:45;;;;;;;11.68;7.43;;;8.50;99.90;;;;;;5076028;28;20681;-68
2022/09/22 04:24:13;;;;;;;12.77;7.00;;;8.50;99.90;;;;;;5073047;28;20024;-64
2022/09/22 04:26:39;;;;;;;11.93;6.63;;;8.50;99.90;;;;;;5072272;28;20115;-67
2022/09/22 04:29:05;;;;;;;14.18;7.40;;;8.50;99.90;;;;;;5072710;28;20068;-65
2022/09/22 04:31:31;;;;;;;15.88;8.00;;;8.50;99.90;;;;;;5072784;28;20471;-65
2022/09/22 04:33:57;;;;;;;14.65;7.85;;;8.50;99.90;;;;;;5072396;28;20470;-67
2022/09/22 04:36:23;;;;;;;12.43;6.82;;;8.50;99.90;;;;;;5072316;28;20036;-66
2022/09/22 04:38:48;;;;;;;10.95;6.60;;;8.50;99.90;;;;;;5072358;28;20043;-67
2022/09/22 04:41:14;;;;;;;12.20;6.97;;;8.60;99.90;;;;;;5072568;28;20414;-66
2022/09/22 04:43:41;;;;;;;14.15;7.72;;;8.60;99.90;;;;;;5072140;28;20375;-66
2022/09/22 04:46:07;;;;;;;17.40;7.20;;;8.60;99.90;;;;;;5072456;28;20012;-66
2022/09/22 04:48:33;;;;;;;13.43;6.68;;;8.60;99.90;;;;;;5071964;28;20036;-66
2022/09/22 04:50:59;;;;;;;13.63;7.18;;;8.60;99.90;;;;;;5072254;28;20021;-67
2022/09/22 04:53:24;;;;;;;12.98;6.90;;;8.60;99.90;;;;;;5072493;28;20017;-67
2022/09/22 04:55:50;;;;;;;13.60;6.88;;;8.50;99.90;;;;;;5072496;28;20071;-65
2022/09/22 04:58:16;;;;;;;12.65;7.22;;;8.60;99.90;;;;;;5072203;28;20028;-65
2022/09/22 05:00:42;;;;;;;12.23;6.82;;;8.60;99.90;;;;;;5071966;28;20028;-65
2022/09/22 05:03:10;;;;;;;13.30;7.63;;;8.60;99.90;;;;;;5067908;28;20052;-66
2022/09/22 05:05:36;;;;;;;13.85;8.43;;;9.20;99.90;;;;;;5071699;28;20074;-67
2022/09/22 05:08:02;;;;;;;19.85;8.90;;;10.00;99.90;;;;;;5071529;28;20112;-66
2022/09/22 05:10:31;;;;;;;13.80;8.02;;;10.70;99.90;;;;;;5072078;28;20099;-65
2022/09/22 05:12:57;;;;;;;18.35;9.65;;;11.00;99.90;;;;;;5071722;28;20107;-65
2022/09/22 05:15:23;;;;;;;20.85;10.45;;;11.60;99.90;;;;;;5072265;28;20045;-66
2022/09/22 05:17:51;;;;;;;14.98;9.85;;;12.20;99.90;;;;;;5072684;28;20052;-66
2022/09/22 05:20:18;;;;;;;13.40;7.28;;;12.20;99.90;;;;;;5072531;28;20032;-66
2022/09/22 05:22:46;;;;;;;11.70;5.93;;;12.30;99.90;;;;;;5073126;28;20032;-68
2022/09/22 05:25:13;;;;;;;10.55;5.20;;;11.90;99.90;;;;;;5074975;28;20024;-67
2022/09/22 05:27:50;;;;;;;7.57;5.03;;;11.30;99.90;;;;;;5074161;28;20103;-68
2022/09/22 05:30:17;;;;;;;8.65;4.95;;;10.60;99.90;;;;;;5073071;28;20048;-67
2022/09/22 05:32:45;;;;;;;7.38;4.07;;;10.40;99.90;;;;;;5072425;28;20489;-66
2022/09/22 05:35:12;;;;;;;9.45;4.88;;;10.00;99.90;;;;;;5071692;28;20029;-67
2022/09/22 05:37:38;;;;;;;8.40;4.65;;;10.10;99.90;;;;;;5072325;28;20371;-67
2022/09/22 05:40:06;;;;;;;9.93;5.60;;;9.90;99.90;;;;;;5072939;28;20055;-67
2022/09/22 05:42:32;;;;;;;10.98;4.82;;;9.80;99.90;;;;;;5072859;28;20008;-67
2022/09/22 05:44:58;;;;;;;10.02;5.18;;;9.70;99.90;;;;;;5072489;28;20025;-67
2022/09/22 05:47:24;;;;;;;10.82;4.93;;;9.70;99.90;;;;;;5072683;28;20021;-65
2022/09/22 05:49:50;;;;;;;11.48;4.80;;;9.70;99.90;;;;;;5072534;28;20047;-68
2022/09/22 05:52:15;;;;;;;9.68;5.45;;;9.70;99.90;;;;;;5072941;28;20024;-68
2022/09/22 05:54:41;;;;;;;8.52;4.43;;;9.70;99.90;;;;;;5072619;28;20471;-67
2022/09/22 05:57:07;;;;;;;10.90;5.43;;;9.70;99.90;;;;;;5072594;28;20027;-67
2022/09/22 05:59:33;;;;;;;16.83;8.10;;;9.60;99.90;;;;;;5072432;28;20062;-67
2022/09/22 06:01:59;;;;;;;14.48;6.72;;;9.70;99.90;;;;;;5072363;28;20028;-67
2022/09/22 06:04:25;;;;;;;13.75;6.68;;;9.70;99.90;;;;;;5071790;28;20494;-67
2022/09/22 06:06:50;;;;;;;12.88;6.78;;;9.90;99.90;;;;;;5072066;28;20052;-67
2022/09/22 06:09:16;;;;;;;13.63;6.82;;;10.00;99.90;;;;;;5071953;28;20055;-67
2022/09/22 06:11:42;;;;;;;12.60;6.97;;;10.30;99.90;;;;;;5072255;28;20017;-67
2022/09/22 06:14:08;;;;;;;10.70;5.82;;;10.50;99.90;;;;;;5072263;28;20028;-67
2022/09/22 06:16:33;;;;;;;15.05;5.72;;;10.60;99.90;;;;;;5055319;28;20028;-66
2022/09/22 06:18:59;;;;;;;9.75;5.82;;;10.70;99.90;;;;;;5050746;28;20466;-68
2022/09/22 06:21:25;;;;;;;11.75;6.90;;;10.90;99.90;;;;;;5056610;28;20050;-67
2022/09/22 06:23:51;;;;;;;8.85;5.03;;;11.00;99.90;;;;;;5056415;28;20033;-67
2022/09/22 06:26:16;;;;;;;11.85;6.00;;;11.10;99.90;;;;;;5051581;28;20088;-67
2022/09/22 06:28:42;;;;;;;12.65;5.50;;;11.20;99.90;;;;;;5054294;28;20043;-66
2022/09/22 06:31:08;;;;;;;6.88;4.68;;;11.30;99.90;;;;;;5070890;28;20031;-65
2022/09/22 06:33:34;;;;;;;8.30;5.05;;;11.30;99.90;;;;;;5071084;28;20017;-68
2022/09/22 06:36:01;;;;;;;8.70;5.70;;;11.30;99.90;;;;;;5071387;28;20029;-65
2022/09/22 06:38:26;;;;;;;7.63;4.95;;;11.50;99.90;;;;;;5053053;28;20490;-67
2022/09/22 06:41:00;;;;;;;8.90;4.40;;;11.40;99.90;;;;;;5071241;28;20017;-68
2022/09/22 06:43:26;;;;;;;9.30;5.28;;;11.50;99.90;;;;;;5071180;28;20033;-68
2022/09/22 06:45:52;;;;;;;7.78;4.38;;;11.60;99.90;;;;;;5070744;28;20066;-67
2022/09/22 06:48:22;;;;;;;11.20;4.97;;;11.80;99.90;;;;;;5070521;28;20051;-68
2022/09/22 06:50:50;;;;;;;8.07;4.47;;;12.00;99.90;;;;;;5071177;28;20028;-68
2022/09/22 06:53:17;;;;;;;10.80;5.28;;;12.10;99.90;;;;;;5071169;28;20098;-68
2022/09/22 06:55:44;;;;;;;16.30;6.47;;;12.20;99.90;;;;;;5071040;28;20025;-68
2022/09/22 06:58:11;;;;;;;8.18;4.53;;;12.30;99.90;;;;;;5070474;28;20048;-68
2022/09/22 07:00:40;;;;;;;8.18;4.20;;;12.30;99.90;;;;;;5070173;28;20032;-67
2022/09/22 07:03:21;;;;;;;6.75;3.58;;;12.40;99.90;;;;;;5057006;28;20499;-67
2022/09/22 07:05:59;;;;;;;7.00;4.50;;;12.40;99.90;;;;;;5057567;28;20049;-68
2022/09/22 07:08:27;;;;;;;6.18;3.45;;;12.40;99.90;;;;;;5069910;28;20040;-68
2022/09/22 07:10:55;;;;;;;8.93;4.40;;;12.60;99.90;;;;;;5058154;28;20043;-67
2022/09/22 07:13:21;;;;;;;7.68;3.78;;;12.60;99.90;;;;;;5050508;28;20045;-67
2022/09/22 07:15:47;;;;;;;6.20;3.47;;;12.90;99.90;;;;;;5063858;28;20096;-68
2022/09/22 07:18:13;;;;;;;8.20;4.53;;;13.10;99.90;;;;;;5057670;28;20128;-67
2022/09/22 07:20:40;;;;;;;9.07;4.75;;;13.00;99.90;;;;;;5058246;28;20516;-68
2022/09/22 07:23:10;;;;;;;5.40;3.47;;;13.20;99.90;;;;;;5075966;28;20547;-67
2022/09/22 07:25:36;;;;;;;7.57;4.35;;;13.00;99.90;;;;;;5070805;28;20039;-68
2022/09/22 07:28:05;;;;;;;8.77;4.40;;;12.90;99.90;;;;;;5071012;28;20398;-68
2022/09/22 07:30:33;;;;;;;6.95;4.18;;;13.00;99.90;;;;;;5070991;28;20036;-68
2022/09/22 07:33:00;;;;;;;10.02;4.38;;;13.00;99.90;;;;;;5070925;28;20040;-68
2022/09/22 07:35:27;;;;;;;8.80;4.00;;;13.40;99.90;;;;;;5082283;28;20062;-67
2022/09/22 07:38:02;;;;;;;6.15;4.03;;;13.30;99.90;;;;;;5070899;28;20052;-67
2022/09/22 07:40:27;;;;;;;6.88;3.78;;;13.00;99.90;;;;;;5071372;28;20036;-66
2022/09/22 07:42:53;;;;;;;8.00;4.40;;;13.10;99.90;;;;;;5069892;28;20019;-66
2022/09/22 07:45:21;;;;;;;9.18;4.72;;;13.30;99.90;;;;;;5065453;28;20052;-67
2022/09/22 07:50:31;;;;;;;8.85;3.97;;;13.50;99.90;;;;;;5070199;28;20075;-67
2022/09/22 07:52:57;;;;;;;6.13;3.58;;;13.60;99.90;;;;;;5070000;28;20025;-67
2022/09/22 07:55:23;;;;;;;6.10;4.28;;;13.60;99.90;;;;;;5069893;28;20067;-68
2022/09/22 07:57:54;;;;;;;7.15;3.92;;;13.60;99.90;;;;;;5069998;28;20530;-67
2022/09/22 08:00:21;;;;;;;8.07;4.28;;;13.70;99.90;;;;;;5073159;28;20024;-67
2022/09/22 08:02:53;;;;;;;5.47;3.85;;;14.00;99.90;;;;;;5073594;28;20033;-68
2022/09/22 08:05:19;;;;;;;5.68;3.70;;;14.10;99.90;;;;;;5073554;28;20055;-67
2022/09/22 08:07:45;;;;;;;7.47;4.05;;;14.20;99.90;;;;;;5073844;28;20032;-67
2022/09/22 08:10:12;;;;;;;7.45;3.85;;;14.40;99.90;;;;;;5073674;28;20028;-66
2022/09/22 08:12:38;;;;;;;5.22;3.90;;;14.50;99.90;;;;;;5074230;28;20017;-67
2022/09/22 08:15:05;;;;;;;7.75;3.75;;;14.50;99.90;;;;;;5074351;28;20481;-65
2022/09/22 08:17:31;;;;;;;6.15;3.63;;;14.50;99.90;;;;;;5074364;28;20071;-67
2022/09/22 08:19:58;;;;;;;8.10;4.05;;;14.90;99.90;;;;;;5074263;28;20495;-66
2022/09/22 08:22:24;;;;;;;5.05;3.50;;;14.80;99.90;;;;;;5074191;28;20012;-68
2022/09/22 08:24:49;;;;;;;4.93;3.33;;;14.40;99.90;;;;;;5073878;28;20024;-67
2022/09/22 08:27:15;;;;;;;6.38;3.67;;;14.30;99.90;;;;;;5074073;28;20028;-68
2022/09/22 08:29:42;;;;;;;5.68;3.20;;;14.20;99.90;;;;;;5074209;28;20077;-67
2022/09/22 08:32:08;;;;;;;4.85;3.10;;;14.20;99.90;;;;;;5074486;28;20013;-67
2022/09/22 08:34:34;;;;;;;6.65;3.88;;;14.00;99.90;;;;;;5074358;28;20029;-67
2022/09/22 08:37:00;;;;;;;10.32;3.65;;;14.30;99.90;;;;;;5074407;28;20101;-67
2022/09/22 08:39:25;;;;;;;4.88;3.25;;;14.30;99.90;;;;;;5074498;28;20115;-66
2022/09/22 08:42:21;;;;;;;7.72;4.03;;;14.50;99.90;;;;;;5074275;28;20108;-67
2022/09/22 08:45:05;;;;;;;5.13;3.60;;;14.20;99.90;;;;;;4992485;28;20070;-68
2022/09/22 08:53:47;;;;;;;4.25;3.20;;;14.60;99.90;;;;;;4992593;28;20077;-67
2022/09/22 08:56:32;;;;;;;8.50;3.72;;;14.80;99.90;;;;;;4992515;28;20124;-67
2022/09/22 08:59:09;;;;;;;4.38;3.28;;;15.10;99.90;;;;;;4992212;28;20073;-67
2022/09/22 09:02:05;;;;;;;5.95;3.42;;;15.50;99.90;;;;;;4992016;28;20153;-67
2022/09/22 09:04:53;;;;;;;7.03;3.50;;;15.30;99.90;;;;;;4989845;28;20525;-68
2022/09/22 09:07:36;;;;;;;4.68;3.03;;;15.50;99.90;;;;;;4991344;28;20046;-68
2022/09/22 09:10:25;;;;;;;7.18;3.85;;;15.30;99.90;;;;;;4994108;28;20053;-68
2022/09/22 09:13:25;;;;;;;7.63;4.32;;;15.50;99.90;;;;;;4992565;28;20054;-68
2022/09/22 09:15:59;;;;;;;6.85;3.50;;;15.20;99.90;;;;;;4990627;28;20046;-67
2022/09/22 09:18:32;;;;;;;7.38;3.75;;;15.40;99.90;;;;;;4990869;28;20053;-68
2022/09/22 09:21:00;;;;;;;;;;;15.50;99.90;;;;;;5025246;28;20032;-66
2022/09/22 09:23:53;;;;;;;6.72;3.40;;;15.20;99.90;;;;;;5073536;28;19908;-67
2022/09/22 09:26:19;;;;;;;;;;;15.10;99.90;;;;;;5069134;28;20111;-68
2022/09/22 09:28:54;;;;;;;5.05;3.35;;;15.00;99.90;;;;;;5066387;28;19917;-67
2022/09/22 09:31:31;;;;;;;5.55;3.50;;;15.10;99.90;;;;;;5053968;28;20387;-68
2022/09/22 09:34:04;;;;;;;5.15;3.38;;;14.90;99.90;;;;;;5073585;28;20031;-67
2022/09/22 09:36:38;;;;;;;5.30;3.20;;;15.00;99.90;;;;;;5073800;28;20028;-67
2022/09/22 09:39:13;;;;;;;6.32;3.28;;;15.10;99.90;;;;;;5073480;28;20419;-67
2022/09/22 09:41:42;;;;;;;4.72;2.63;;;15.10;99.90;;;;;;5073665;28;20521;-68
2022/09/22 09:44:16;;;;;;;5.13;3.28;;;15.00;99.90;;;;;;5073448;28;20100;-67
2022/09/22 09:47:08;;;;;;;5.40;3.42;;;15.30;99.90;;;;;;5073166;28;20579;-67
2022/09/22 09:49:34;;;;;;;5.32;2.60;;;15.60;99.90;;;;;;5073120;28;20482;-67
2022/09/22 09:52:02;;;;;;;3.72;2.38;;;15.70;99.90;;;;;;5073239;28;20023;-67
2022/09/22 09:54:28;;;;;;;4.60;2.47;;;15.60;99.90;;;;;;5071375;28;20033;-67
2022/09/22 09:57:03;;;;;;;6.65;3.03;;;15.60;99.90;;;;;;5072698;28;20023;-68
2022/09/22 10:02:16;;;;;;;7.82;3.40;;;15.40;99.90;;;;;;5072266;28;20486;-67
2022/09/22 10:04:51;;;;;;;5.78;3.05;;;15.50;99.90;;;;;;5050633;28;20040;-69
2022/09/22 10:07:20;;;;;;;4.25;3.10;;;15.50;99.90;;;;;;5070378;28;20051;-67
2022/09/22 10:09:50;;;;;;;6.00;2.78;;;15.40;99.90;;;;;;5071082;28;20044;-67
2022/09/22 10:12:21;;;;;;;5.15;2.47;;;15.70;99.90;;;;;;5070737;28;20121;-68
2022/09/22 10:14:58;;;;;;;5.93;3.15;;;15.90;99.90;;;;;;5068612;28;20032;-68
2022/09/22 10:17:41;;;;;;;2.90;2.42;;;16.00;99.90;;;;;;5066600;28;20032;-68
2022/09/22 10:20:20;;;;;;;6.07;2.55;;;16.10;99.90;;;;;;5066945;28;20463;-68
2022/09/22 10:22:47;;;;;;;4.05;2.15;;;16.20;99.90;;;;;;5082407;28;20036;-68
2022/09/22 10:25:19;;;;;;;4.68;2.17;;;16.30;99.90;;;;;;5060975;28;20059;-69
2022/09/22 10:27:57;;;;;;;4.75;2.45;;;16.10;99.90;;;;;;5072831;28;20482;-70
2022/09/22 10:30:24;;;;;;;4.20;2.35;;;16.30;99.90;;;;;;5072284;28;20036;-71
2022/09/22 10:33:21;;;;;;;5.70;2.63;;;16.10;99.90;;;;;;5072617;28;20024;-69
2022/09/22 10:35:54;;;;;;;5.45;2.28;;;16.10;99.90;;;;;;5057900;28;20048;-69
2022/09/22 10:38:20;;;;;;;3.13;1.98;;;15.80;99.90;;;;;;5052597;28;20036;-68
2022/09/22 10:41:08;;;;;;;3.85;2.20;;;15.90;99.90;;;;;;5052403;28;20024;-68
2022/09/22 10:43:51;;;;;;;4.82;2.78;;;16.10;99.90;;;;;;5060415;28;20383;-70
2022/09/22 10:46:43;;;;;;;4.32;1.90;;;16.20;99.90;;;;;;5072376;28;20024;-69
2022/09/22 10:49:24;;;;;;;3.30;2.42;;;16.20;99.90;;;;;;5072022;28;20044;-69
2022/09/22 10:52:09;;;;;;;4.90;2.50;;;16.20;99.90;;;;;;5059253;28;20059;-68
2022/09/22 10:54:57;;;;;;;4.43;2.17;;;16.20;99.90;;;;;;5072308;28;20072;-69
2022/09/22 10:57:53;;;;;;;2.65;1.92;;;16.20;99.90;;;;;;5072279;28;20055;-70
2022/09/22 11:00:24;;;;;;;3.88;2.22;;;16.60;99.90;;;;;;5058730;28;20378;-69
2022/09/22 11:03:24;;;;;;;4.13;2.33;;;16.50;99.90;;;;;;5071563;28;20032;-67
2022/09/22 11:12:26;;;;;;;6.97;2.58;;;17.10;99.90;;;;;;5071743;28;20063;-69
2022/09/22 11:15:12;;;;;;;3.22;2.20;;;17.30;99.90;;;;;;5071671;28;20352;-70
2022/09/22 11:18:05;;;;;;;3.35;1.98;;;17.40;99.90;;;;;;5071577;28;20451;-70
2022/09/22 11:20:31;;;;;;;;;;;17.20;99.90;;;;;;5071971;28;20044;-69
2022/09/22 11:23:03;;;;;;;2.97;2.25;;;17.20;99.90;;;;;;5071502;28;19904;-69
2022/09/22 11:25:44;;;;;;;5.22;2.47;;;17.10;99.90;;;;;;5071149;28;20028;-69
2022/09/22 11:28:50;;;;;;;3.60;2.05;;;17.00;99.90;;;;;;5070752;28;20056;-70
2022/09/22 11:31:25;;;;;;;3.35;1.92;;;17.30;99.90;;;;;;5060229;28;20471;-70
2022/09/22 11:34:19;;;;;;;3.97;2.70;;;17.20;99.90;;;;;;5073337;28;20072;-69
2022/09/22 11:37:24;;;;;;;3.67;2.25;;;17.20;99.90;;;;;;5074639;28;20470;-69
2022/09/22 11:40:25;;;;;;;3.42;2.13;;;17.10;99.90;;;;;;5065433;28;20028;-69
2022/09/22 11:43:26;;;;;;;5.18;2.70;;;16.90;99.90;;;;;;5062809;28;20470;-69
2022/09/22 11:46:04;;;;;;;6.82;2.35;;;16.80;99.90;;;;;;5075225;28;20024;-69
2022/09/22 11:48:56;;;;;;;3.45;2.05;;;16.80;99.90;;;;;;5075082;28;20032;-70
2022/09/22 11:51:50;;;;;;;2.50;1.93;;;16.80;99.90;;;;;;5044549;28;20036;-70
2022/09/22 11:54:44;;;;;;;4.90;2.30;;;16.80;99.90;;;;;;5075394;28;20028;-69
2022/09/22 11:57:15;;;;;;;5.00;2.70;;;16.90;99.90;;;;;;5075814;28;20036;-70
2022/09/22 11:59:57;;;;;;;6.22;2.83;;;16.80;99.90;;;;;;5075619;28;20364;-69
2022/09/22 12:02:38;;;;;;;4.57;2.63;;;16.80;99.90;;;;;;5075309;28;20142;-70
2022/09/22 12:05:14;;;;;;;3.47;2.45;;;16.90;99.90;;;;;;5075523;28;20033;-71
2022/09/22 12:08:03;;;;;;;3.40;1.98;;;17.10;99.90;;;;;;5075099;28;20098;-70
2022/09/22 12:10:33;;;;;;;2.53;1.75;;;17.10;99.90;;;;;;5044642;28;20102;-69
2022/09/22 12:13:00;;;;;;;3.53;2.30;;;17.00;99.90;;;;;;5055354;28;20013;-69
2022/09/22 12:15:34;;;;;;;3.50;2.00;;;17.10;99.90;;;;;;5061106;28;20039;-70
2022/09/22 12:18:08;;;;;;;3.80;2.40;;;17.30;99.90;;;;;;5075673;28;20025;-70
2022/09/22 12:20:52;;;;;;;2.15;1.75;;;17.30;99.90;;;;;;5074938;28;20021;-70
2022/09/22 12:23:53;;;;;;;3.17;2.17;;;17.20;99.90;;;;;;5074964;28;20028;-70
2022/09/22 12:26:28;;;;;;;4.75;2.78;;;17.30;99.90;;;;;;4993744;28;20436;-70
2022/09/22 12:28:54;;;;;;;3.75;2.00;;;17.40;99.90;;;;;;4993418;28;20500;-71
2022/09/22 12:31:33;;;;;;;3.67;1.85;;;17.60;99.90;;;;;;4993547;28;20370;-70
2022/09/22 12:34:01;;;;;;;3.97;2.10;;;17.60;99.90;;;;;;4993782;28;20396;-70
2022/09/22 12:36:37;;;;;;;2.60;1.95;;;17.40;99.90;;;;;;4993450;28;20088;-69
2022/09/22 12:39:21;;;;;;;5.30;2.25;;;17.20;99.90;;;;;;4993003;28;20110;-70
2022/09/22 12:41:55;;;;;;;2.53;2.05;;;17.30;99.90;;;;;;4993587;28;20046;-70
2022/09/22 12:44:31;;;;;;;4.10;1.90;;;17.40;99.90;;;;;;4992615;28;20054;-69
2022/09/22 12:47:04;;;;;;;2.85;1.77;;;17.50;99.90;;;;;;4993138;28;20031;-70
2022/09/22 12:49:30;;;;;;;4.00;1.90;;;17.40;99.90;;;;;;4992919;28;20124;-70
2022/09/22 12:51:56;;;;;;;5.25;1.90;;;17.50;99.90;;;;;;4993226;28;20457;-69
2022/09/22 12:54:22;;;;;;;3.58;1.80;;;17.60;99.90;;;;;;4992118;28;20043;-69
2022/09/22 12:57:01;;;;;;;2.75;1.65;;;17.70;99.90;;;;;;4992977;28;20026;-69
2022/09/22 12:59:38;;;;;;;3.92;2.28;;;17.80;99.90;;;;;;5005103;28;20115;-69
2022/09/22 13:02:14;;;;;;;2.95;1.40;;;18.00;99.90;;;;;;5073808;28;20028;-70
2022/09/22 13:04:55;;;;;;;3.85;2.00;;;18.00;99.90;;;;;;5073312;28;20027;-70
2022/09/22 13:07:43;;;;;;;3.50;2.08;;;18.00;99.90;;;;;;5073861;28;20076;-69
2022/09/22 13:10:23;;;;;;;4.72;2.00;;;18.00;99.90;;;;;;5070718;28;20080;-71
2022/09/22 13:13:02;;;;;;;3.72;2.30;;;18.10;99.90;;;;;;5072864;28;20016;-69
2022/09/22 13:15:42;;;;;;;3.75;1.77;;;18.20;99.90;;;;;;5061172;28;20036;-69
2022/09/22 13:18:27;;;;;;;3.33;1.90;;;18.00;99.90;;;;;;5061418;28;20107;-70
2022/09/22 13:20:53;;;;;;;1.88;1.42;;;18.00;99.90;;;;;;5073565;28;20031;-69
2022/09/22 13:23:19;;;;;;;2.40;1.90;;;18.00;99.90;;;;;;5072338;28;20095;-70
2022/09/22 13:25:45;;;;;;;1.60;1.27;;;18.20;99.90;;;;;;5074049;28;20438;-67
2022/09/22 13:28:14;;;;;;;1.65;1.35;;;18.10;99.90;;;;;;5072864;28;20020;-68
2022/09/22 13:30:42;;;;;;;4.20;1.40;;;18.20;99.90;;;;;;5059982;28;20027;-69